Time;durP1;ratioP1;P1;durP2;ratioP2;P2;SDS_P1;SDS_P2;PMS_P1;PMS_P2;Temp;Humidity;BMP_temperature;BMP_pressure;BME280_temperature;BME280_humidity;BME280_pressure;Samples;Min_cycle;Max_cycle;Signal;HPM_P1;HPM_P2
2023/07/02 00:02:01;;;;;;;19.30;13.70;;;25.40;80.20;;;;;;7635972;22;83406;-57
2023/07/02 00:05:02;;;;;;;16.77;13.18;;;25.40;80.30;;;;;;7637726;22;83240;-57
2023/07/02 00:08:02;;;;;;;21.77;14.52;;;25.40;80.20;;;;;;7636284;22;83341;-57
2023/07/02 00:11:03;;;;;;;18.90;12.63;;;25.40;80.30;;;;;;7636750;22;83854;-57
2023/07/02 00:14:03;;;;;;;18.15;13.98;;;25.40;80.30;;;;;;7636868;22;83011;-74
2023/07/02 00:17:04;;;;;;;17.70;13.93;;;25.40;80.30;;;;;;7651613;22;82832;-73
2023/07/02 00:20:08;;;;;;;18.38;13.27;;;25.30;80.20;;;;;;7661464;22;82571;-73
2023/07/02 00:23:09;;;;;;;18.30;14.07;;;25.30;80.20;;;;;;7653617;22;83179;-74
2023/07/02 00:26:10;;;;;;;18.23;15.18;;;25.30;80.20;;;;;;7642990;22;83804;-72
2023/07/02 00:29:11;;;;;;;18.20;14.40;;;25.30;80.30;;;;;;7614560;22;84939;-71
2023/07/02 00:32:12;;;;;;;19.30;14.48;;;25.30;80.20;;;;;;7641557;22;83135;-71
2023/07/02 00:35:12;;;;;;;20.80;15.02;;;25.30;80.10;;;;;;7637798;22;83110;-55
2023/07/02 00:38:13;;;;;;;17.77;13.85;;;25.30;80.00;;;;;;7609917;22;84050;-55
2023/07/02 00:41:13;;;;;;;16.65;13.50;;;25.30;80.00;;;;;;7637541;22;83089;-54
2023/07/02 00:44:14;;;;;;;18.58;14.15;;;25.30;80.00;;;;;;7637705;22;83209;-56
2023/07/02 00:47:16;;;;;;;17.05;14.45;;;25.30;79.90;;;;;;7637528;22;83088;-57
2023/07/02 00:50:16;;;;;;;17.55;13.82;;;25.30;79.80;;;;;;7611146;22;84382;-56
2023/07/02 00:53:17;;;;;;;18.83;14.23;;;25.30;79.80;;;;;;7610219;22;84652;-67
2023/07/02 00:56:17;;;;;;;18.92;15.02;;;25.30;79.80;;;;;;7639597;22;83435;-69
2023/07/02 00:59:18;;;;;;;19.25;13.93;;;25.30;79.60;;;;;;7642768;22;83443;-71
2023/07/02 01:02:18;;;;;;;19.90;13.70;;;25.30;79.60;;;;;;7640084;22;83680;-70
2023/07/02 01:05:21;;;;;;;18.00;14.27;;;25.30;79.60;;;;;;7641338;22;83255;-72
2023/07/02 01:08:22;;;;;;;21.08;14.30;;;25.30;79.50;;;;;;7617855;22;84294;-73
2023/07/02 01:11:22;;;;;;;17.48;13.35;;;25.30;79.30;;;;;;7634537;22;83095;-74
2023/07/02 01:14:23;;;;;;;15.15;13.13;;;25.30;79.30;;;;;;7635796;22;83395;-72
2023/07/02 01:17:23;;;;;;;18.38;14.55;;;25.30;79.30;;;;;;7635190;22;83155;-71
2023/07/02 01:20:24;;;;;;;19.33;13.68;;;25.30;79.20;;;;;;7609242;22;85739;-71
2023/07/02 01:23:24;;;;;;;16.27;13.25;;;25.30;79.10;;;;;;7609184;22;85800;-72
2023/07/02 01:26:25;;;;;;;20.70;14.18;;;25.30;79.00;;;;;;7638086;22;82867;-74
2023/07/02 01:29:25;;;;;;;20.13;14.77;;;25.30;79.00;;;;;;7637517;22;83204;-75
2023/07/02 01:32:26;;;;;;;19.08;13.63;;;25.30;78.80;;;;;;7638653;22;83156;-72
2023/07/02 01:35:27;;;;;;;20.83;13.55;;;25.20;78.60;;;;;;7637154;22;82987;-73
2023/07/02 01:38:27;;;;;;;17.30;13.48;;;25.20;78.60;;;;;;7637121;22;83594;-74
2023/07/02 01:41:28;;;;;;;21.45;13.80;;;25.30;78.50;;;;;;7638535;22;82697;-74
2023/07/02 01:44:28;;;;;;;16.10;13.20;;;25.20;78.50;;;;;;7639166;22;82869;-73
2023/07/02 01:47:29;;;;;;;17.52;14.32;;;25.20;78.40;;;;;;7640012;22;82676;-58
2023/07/02 01:50:29;;;;;;;16.05;12.48;;;25.30;78.30;;;;;;7636705;22;83803;-58
2023/07/02 01:53:30;;;;;;;17.27;13.20;;;25.20;78.20;;;;;;7637599;22;83034;-57
2023/07/02 01:56:31;;;;;;;17.17;13.10;;;25.20;78.30;;;;;;7636927;22;83966;-57
2023/07/02 01:59:31;;;;;;;16.67;13.70;;;25.30;78.20;;;;;;7609721;22;83919;-58
2023/07/02 02:02:32;;;;;;;16.50;12.48;;;25.30;78.30;;;;;;7610752;22;85958;-58
2023/07/02 02:05:33;;;;;;;16.30;13.02;;;25.20;78.10;;;;;;7638336;22;83182;-73
2023/07/02 02:08:34;;;;;;;17.83;12.77;;;25.20;78.00;;;;;;7641571;22;83121;-75
2023/07/02 02:11:34;;;;;;;17.80;12.70;;;25.20;78.00;;;;;;7614676;22;86017;-77
2023/07/02 02:14:35;;;;;;;17.77;13.07;;;25.20;78.20;;;;;;7613708;22;85849;-75
2023/07/02 02:17:35;;;;;;;15.20;12.07;;;25.20;78.10;;;;;;7638142;22;83001;-75
2023/07/02 02:20:36;;;;;;;15.13;12.27;;;25.30;78.00;;;;;;7639434;22;83908;-76
2023/07/02 02:23:36;;;;;;;17.52;12.20;;;25.20;77.80;;;;;;7640307;22;83028;-69
2023/07/02 02:26:37;;;;;;;15.93;12.82;;;25.20;77.80;;;;;;7638709;22;82864;-75
2023/07/02 02:29:37;;;;;;;13.55;11.55;;;25.20;77.80;;;;;;7640434;22;82927;-76
2023/07/02 02:32:38;;;;;;;17.95;12.43;;;25.20;77.60;;;;;;7610641;22;84976;-74
2023/07/02 02:35:40;;;;;;;17.83;12.45;;;25.30;78.00;;;;;;7612877;22;84058;-74
2023/07/02 02:38:41;;;;;;;15.52;12.20;;;25.30;77.70;;;;;;7607139;22;83939;-75
2023/07/02 02:41:42;;;;;;;17.35;11.70;;;25.30;77.50;;;;;;7613437;22;85883;-74
2023/07/02 02:44:43;;;;;;;15.70;13.27;;;25.20;77.60;;;;;;7615393;22;85721;-78
2023/07/02 02:47:44;;;;;;;15.77;11.77;;;25.20;77.40;;;;;;7620112;22;85445;-76
2023/07/02 02:50:44;;;;;;;15.43;11.93;;;25.20;77.40;;;;;;7643827;22;83585;-77
2023/07/02 03:11:50;;;;;;;14.57;11.13;;;25.20;77.20;;;;;;7632598;22;83860;-56
2023/07/02 03:14:54;;;;;;;15.63;12.07;;;25.30;77.30;;;;;;7574651;23;84645;-56
2023/07/02 03:17:54;;;;;;;15.13;12.25;;;25.30;77.20;;;;;;7574620;23;86118;-74
2023/07/02 03:20:55;;;;;;;13.70;11.07;;;25.30;77.80;;;;;;7602597;23;82797;-77
2023/07/02 03:23:55;;;;;;;16.58;11.93;;;25.30;77.30;;;;;;7602689;23;82895;-77
2023/07/02 03:26:56;;;;;;;14.45;11.63;;;25.20;77.10;;;;;;7601873;23;83956;-73
2023/07/02 03:29:56;;;;;;;15.90;11.85;;;25.20;77.00;;;;;;7602420;23;89903;-68
2023/07/02 03:32:57;;;;;;;14.27;11.38;;;25.30;77.00;;;;;;7602118;23;82773;-72
2023/07/02 03:35:57;;;;;;;15.77;11.80;;;25.20;76.80;;;;;;7604384;23;83384;-73
2023/07/02 03:38:58;;;;;;;16.17;11.98;;;25.20;76.70;;;;;;7604257;23;82645;-76
2023/07/02 03:41:58;;;;;;;14.18;11.52;;;25.20;76.70;;;;;;7601945;23;83077;-73
2023/07/02 03:44:59;;;;;;;14.73;11.00;;;25.20;76.60;;;;;;7602430;23;83242;-76
2023/07/02 03:48:00;;;;;;;17.83;12.07;;;25.30;76.60;;;;;;7600792;23;83079;-76
2023/07/02 03:51:01;;;;;;;15.48;11.63;;;25.20;76.60;;;;;;7574784;23;83154;-77
2023/07/02 03:54:01;;;;;;;13.80;10.88;;;25.20;76.60;;;;;;7601261;23;83053;-75
2023/07/02 03:57:02;;;;;;;16.42;10.30;;;25.20;76.50;;;;;;7602325;23;83157;-56
2023/07/02 04:00:04;;;;;;;14.20;10.75;;;25.30;76.70;;;;;;7601137;23;82917;-58
2023/07/02 04:03:15;;;;;;;13.00;10.20;;;25.30;76.90;;;;;;7601077;23;83034;-56
2023/07/02 04:06:15;;;;;;;13.90;10.02;;;25.30;76.60;;;;;;7600799;23;83052;-57
2023/07/02 04:09:18;;;;;;;13.82;10.95;;;25.30;76.80;;;;;;7601407;23;82874;-55
2023/07/02 04:12:18;;;;;;;18.08;10.82;;;25.30;76.90;;;;;;7604157;22;83230;-56
2023/07/02 04:15:19;;;;;;;16.02;10.70;;;25.30;76.50;;;;;;7610666;22;83110;-66
2023/07/02 04:18:19;;;;;;;13.18;9.90;;;25.30;76.40;;;;;;7638031;22;83332;-65
2023/07/02 04:21:20;;;;;;;11.90;9.48;;;25.30;76.20;;;;;;7642069;22;82884;-68
2023/07/02 04:24:20;;;;;;;15.63;11.48;;;25.40;76.20;;;;;;7638814;22;80441;-69
2023/07/02 04:27:21;;;;;;;13.25;10.13;;;25.40;76.40;;;;;;7635790;22;84058;-68
2023/07/02 04:30:22;;;;;;;14.05;10.45;;;25.40;76.50;;;;;;7637526;22;83102;-67
2023/07/02 04:33:22;;;;;;;12.32;9.52;;;25.40;76.10;;;;;;7635979;22;83768;-59
2023/07/02 04:36:23;;;;;;;15.45;10.88;;;25.40;76.00;;;;;;7640737;22;82929;-58
2023/07/02 04:39:23;;;;;;;14.60;11.00;;;25.40;76.60;;;;;;7635736;22;83139;-58
2023/07/02 04:42:27;;;;;;;15.57;10.95;;;25.30;76.40;;;;;;7634745;22;82808;-58
2023/07/02 04:45:31;;;;;;;16.58;10.98;;;25.20;76.50;;;;;;7636377;22;83432;-58
2023/07/02 04:48:32;;;;;;;11.93;9.52;;;25.10;76.40;;;;;;7634829;22;83026;-58
2023/07/02 04:51:32;;;;;;;14.52;11.02;;;25.00;76.80;;;;;;7629813;22;82619;-57
2023/07/02 04:54:33;;;;;;;15.93;10.60;;;24.70;78.10;;;;;;7619594;22;83503;-57
2023/07/02 04:57:34;;;;;;;14.32;10.15;;;24.40;79.50;;;;;;7619802;22;83676;-57
2023/07/02 05:00:34;;;;;;;13.75;9.48;;;24.30;80.10;;;;;;7621576;22;83287;-57
2023/07/02 05:03:35;;;;;;;13.43;10.05;;;24.00;81.00;;;;;;7632130;22;81565;-57
2023/07/02 05:06:35;;;;;;;16.95;10.55;;;23.90;81.70;;;;;;7630139;22;83446;-56
2023/07/02 05:09:36;;;;;;;13.63;10.32;;;24.00;81.70;;;;;;7630851;22;83476;-66
2023/07/02 05:12:36;;;;;;;13.15;10.35;;;24.10;81.40;;;;;;7635851;22;83430;-72
2023/07/02 05:15:37;;;;;;;12.38;9.43;;;24.00;80.80;;;;;;7637669;22;83683;-65
2023/07/02 05:18:37;;;;;;;14.15;10.38;;;23.90;80.60;;;;;;7641439;22;82877;-70
2023/07/02 05:21:38;;;;;;;12.80;9.70;;;23.70;81.20;;;;;;7637862;22;82881;-67
2023/07/02 05:24:40;;;;;;;21.63;15.13;;;23.60;81.10;;;;;;7640849;22;82762;-70
2023/07/02 05:27:41;;;;;;;22.55;15.18;;;23.60;81.70;;;;;;7635923;22;82599;-60
2023/07/02 05:30:41;;;;;;;32.70;22.73;;;23.60;82.00;;;;;;7636553;22;83867;-65
2023/07/02 05:33:42;;;;;;;29.38;22.15;;;23.60;82.20;;;;;;7634518;22;82976;-62
2023/07/02 05:36:42;;;;;;;22.52;17.10;;;23.70;81.00;;;;;;7634637;22;83135;-62
2023/07/02 05:39:43;;;;;;;24.17;16.92;;;23.70;82.20;;;;;;7636295;22;83437;-61
2023/07/02 05:42:44;;;;;;;15.70;11.48;;;23.80;82.30;;;;;;7639502;22;83563;-61
2023/07/02 05:45:44;;;;;;;15.43;11.35;;;23.90;80.60;;;;;;7636269;22;82824;-60
2023/07/02 05:48:45;;;;;;;18.70;12.20;;;24.00;80.10;;;;;;7637722;22;83078;-59
2023/07/02 05:51:45;;;;;;;18.45;12.70;;;24.30;79.90;;;;;;7638599;22;83229;-63
2023/07/02 05:54:46;;;;;;;18.23;11.85;;;24.50;79.50;;;;;;7635822;22;83455;-59
2023/07/02 05:57:46;;;;;;;14.05;9.65;;;24.70;77.90;;;;;;7636635;22;83796;-63
2023/07/02 06:00:49;;;;;;;14.30;9.57;;;24.60;75.80;;;;;;7641937;22;81720;-70
2023/07/02 06:03:49;;;;;;;17.65;9.02;;;24.50;74.30;;;;;;7639906;22;80606;-67
2023/07/02 06:06:50;;;;;;;11.85;7.90;;;24.60;75.60;;;;;;7641650;22;80410;-63
2023/07/02 06:09:50;;;;;;;12.55;7.95;;;24.70;74.40;;;;;;7641000;22;80501;-63
2023/07/02 06:12:52;;;;;;;11.48;8.07;;;24.50;72.50;;;;;;7640907;22;80515;-60
2023/07/02 06:15:52;;;;;;;11.00;7.13;;;24.60;72.00;;;;;;7642180;22;80378;-68
2023/07/02 06:18:53;;;;;;;12.93;7.55;;;24.60;71.50;;;;;;7639358;22;79901;-62
2023/07/02 06:21:53;;;;;;;10.75;7.30;;;24.60;71.00;;;;;;7637352;22;80273;-52
2023/07/02 06:24:54;;;;;;;11.68;6.75;;;24.70;71.80;;;;;;7636885;22;80979;-52
2023/07/02 06:27:58;;;;;;;12.90;7.75;;;24.80;70.10;;;;;;7641693;22;80370;-50
2023/07/02 06:30:58;;;;;;;9.85;6.97;;;24.90;68.90;;;;;;7636049;22;80327;-54
2023/07/02 06:33:59;;;;;;;12.90;7.20;;;24.90;69.20;;;;;;7612042;22;84554;-55
2023/07/02 06:36:59;;;;;;;10.80;6.50;;;25.00;67.80;;;;;;7640597;22;80266;-56
2023/07/02 06:40:00;;;;;;;14.38;7.68;;;25.00;67.20;;;;;;7638200;22;80881;-53
2023/07/02 06:43:01;;;;;;;11.60;7.18;;;25.00;66.60;;;;;;7642266;22;81766;-52
2023/07/02 06:46:02;;;;;;;10.32;7.05;;;25.10;67.20;;;;;;7638539;22;85182;-55
2023/07/02 06:49:02;;;;;;;8.30;6.38;;;25.10;67.00;;;;;;7642671;22;80467;-56
2023/07/02 06:52:03;;;;;;;9.13;6.72;;;25.10;66.50;;;;;;7634930;22;80180;-53
2023/07/02 06:55:04;;;;;;;8.43;6.45;;;25.10;66.50;;;;;;7635954;22;80869;-52
2023/07/02 06:58:05;;;;;;;12.50;6.72;;;25.10;65.90;;;;;;7642454;22;80394;-50
2023/07/02 07:01:05;;;;;;;10.88;6.25;;;25.20;65.40;;;;;;7640035;22;80760;-55
2023/07/02 07:04:06;;;;;;;11.82;6.85;;;25.20;65.40;;;;;;7638629;22;80811;-54
2023/07/02 07:07:06;;;;;;;15.88;6.68;;;25.30;65.60;;;;;;7643037;22;80425;-56
2023/07/02 07:10:07;;;;;;;11.70;5.78;;;25.30;65.00;;;;;;7627566;22;80800;-56
2023/07/02 07:13:08;;;;;;;7.65;5.88;;;25.30;64.40;;;;;;7636964;22;81238;-55
2023/07/02 07:16:08;;;;;;;14.82;6.43;;;25.30;63.90;;;;;;7638107;22;80341;-55
2023/07/02 07:19:09;;;;;;;8.88;5.35;;;25.30;63.20;;;;;;7635982;22;80350;-72
2023/07/02 07:22:09;;;;;;;14.93;5.75;;;25.30;63.40;;;;;;7635387;22;80702;-71
2023/07/02 07:25:10;;;;;;;13.10;6.65;;;25.40;63.20;;;;;;7634500;22;80413;-67
2023/07/02 07:28:15;;;;;;;9.32;5.95;;;25.30;63.90;;;;;;7634048;22;80539;-66
2023/07/02 07:31:15;;;;;;;10.97;6.33;;;25.30;63.60;;;;;;7633053;22;80988;-66
2023/07/02 07:34:16;;;;;;;11.25;7.03;;;25.20;64.50;;;;;;7632207;22;81865;-56
2023/07/02 07:37:16;;;;;;;50.22;27.45;;;25.40;64.40;;;;;;7634601;22;81403;-55
2023/07/02 07:40:17;;;;;;;57.28;32.28;;;25.40;62.90;;;;;;7631963;22;83534;-59
2023/07/02 07:43:17;;;;;;;159.85;88.10;;;25.50;62.00;;;;;;7631560;22;83415;-57
2023/07/02 07:46:19;;;;;;;129.73;71.03;;;25.50;62.20;;;;;;7629942;22;83226;-56
2023/07/02 07:49:19;;;;;;;173.45;96.10;;;25.40;61.10;;;;;;7629436;22;83400;-57
2023/07/02 07:52:20;;;;;;;143.75;79.68;;;25.40;61.40;;;;;;7632630;22;83807;-57
2023/07/02 07:55:20;;;;;;;106.07;61.28;;;25.40;61.70;;;;;;7636324;22;83062;-61
2023/07/02 07:58:21;;;;;;;77.45;39.63;;;25.50;62.00;;;;;;7635019;22;83345;-65
2023/07/02 08:01:22;;;;;;;29.83;15.73;;;25.50;62.00;;;;;;7636344;22;84480;-64
2023/07/02 08:04:22;;;;;;;19.30;9.60;;;25.60;61.10;;;;;;7636183;22;83498;-68
2023/07/02 08:07:23;;;;;;;12.38;7.13;;;25.60;61.00;;;;;;7641557;22;82996;-61
2023/07/02 08:10:24;;;;;;;15.75;6.63;;;25.60;60.90;;;;;;7642723;22;81130;-60
2023/07/02 08:13:25;;;;;;;11.50;6.68;;;25.60;60.80;;;;;;7642755;22;80865;-61
2023/07/02 08:16:26;;;;;;;13.35;5.93;;;25.60;60.20;;;;;;7642390;22;80990;-65
2023/07/02 08:19:26;;;;;;;8.80;5.30;;;25.60;60.10;;;;;;7643357;22;80708;-66
2023/07/02 08:22:27;;;;;;;14.43;5.70;;;25.60;60.60;;;;;;7643159;22;80985;-60
2023/07/02 08:25:28;;;;;;;8.25;5.20;;;25.70;61.10;;;;;;7642700;22;80963;-62
2023/07/02 08:28:29;;;;;;;7.90;5.10;;;25.70;60.90;;;;;;7642309;22;80474;-65
2023/07/02 08:31:29;;;;;;;14.23;6.50;;;25.60;61.20;;;;;;7642363;22;80407;-65
2023/07/02 08:34:30;;;;;;;18.25;5.60;;;25.70;61.20;;;;;;7642450;22;80384;-64
2023/07/02 08:37:30;;;;;;;17.95;6.05;;;25.70;60.50;;;;;;7642686;22;80555;-69
2023/07/02 08:40:31;;;;;;;8.52;4.75;;;25.70;59.90;;;;;;7642955;22;81081;-64
2023/07/02 08:43:31;;;;;;;9.63;5.00;;;25.70;59.50;;;;;;7643255;22;81002;-69
2023/07/02 08:46:32;;;;;;;8.23;5.05;;;25.70;59.40;;;;;;7643495;22;81812;-69
2023/07/02 08:49:32;;;;;;;9.50;5.05;;;25.80;59.80;;;;;;7643006;22;80940;-66
2023/07/02 08:52:33;;;;;;;8.43;4.47;;;25.70;60.10;;;;;;7642665;22;80764;-62
2023/07/02 08:55:33;;;;;;;7.63;4.93;;;25.50;59.90;;;;;;7642779;22;80512;-66
2023/07/02 08:58:34;;;;;;;8.30;4.97;;;25.60;60.30;;;;;;7641094;22;80819;-67
2023/07/02 09:01:34;;;;;;;9.23;5.30;;;25.70;60.60;;;;;;7641459;22;80621;-66
2023/07/02 09:04:35;;;;;;;14.48;4.93;;;25.70;59.40;;;;;;7643116;22;80642;-66
2023/07/02 09:07:35;;;;;;;9.05;5.13;;;25.70;59.70;;;;;;7642306;22;80281;-66
2023/07/02 09:10:36;;;;;;;12.23;5.22;;;25.70;59.80;;;;;;7643824;22;80796;-66
2023/07/02 09:13:36;;;;;;;9.30;5.10;;;25.70;60.30;;;;;;7615205;22;83197;-67
2023/07/02 09:16:40;;;;;;;9.95;5.32;;;25.50;60.90;;;;;;7640346;22;80530;-63
2023/07/02 09:19:40;;;;;;;6.88;4.85;;;25.60;61.30;;;;;;7641327;22;80783;-66
2023/07/02 09:22:41;;;;;;;12.05;6.85;;;25.70;61.20;;;;;;7642301;22;80468;-68
2023/07/02 09:25:41;;;;;;;6.07;4.70;;;25.70;60.70;;;;;;7640671;22;80229;-67
2023/07/02 09:28:42;;;;;;;5.65;4.10;;;25.60;61.20;;;;;;7641464;22;80273;-65
2023/07/02 09:31:43;;;;;;;5.72;3.78;;;25.50;60.90;;;;;;7641605;22;81344;-67
2023/07/02 09:34:44;;;;;;;6.25;3.90;;;25.40;60.70;;;;;;7641297;22;81151;-67
2023/07/02 09:37:44;;;;;;;7.93;3.72;;;25.50;60.90;;;;;;7641000;22;80317;-67
2023/07/02 09:40:45;;;;;;;9.45;3.90;;;25.40;61.20;;;;;;7640908;22;81256;-67
2023/07/02 09:43:45;;;;;;;8.73;3.75;;;25.40;61.20;;;;;;7641440;22;81053;-67
2023/07/02 09:46:46;;;;;;;6.22;4.07;;;25.30;60.60;;;;;;7639465;22;80784;-67
2023/07/02 09:49:46;;;;;;;6.50;3.78;;;25.40;60.10;;;;;;7640430;22;81300;-66
2023/07/02 09:52:47;;;;;;;7.55;4.05;;;25.20;60.00;;;;;;7640748;22;81533;-67
2023/07/02 09:55:47;;;;;;;7.32;4.13;;;25.00;59.80;;;;;;7640522;22;81199;-67
2023/07/02 09:58:48;;;;;;;9.15;4.40;;;25.10;60.40;;;;;;7641017;22;80427;-65
2023/07/02 10:01:49;;;;;;;7.43;3.92;;;25.00;60.60;;;;;;7641501;22;80575;-58
2023/07/02 10:04:54;;;;;;;11.98;4.47;;;25.20;61.00;;;;;;7640694;22;80732;-58
2023/07/02 10:07:55;;;;;;;;;;;25.20;60.90;;;;;;7639773;22;80421;-61
2023/07/02 10:10:55;;;;;;;8.63;3.88;;;25.30;60.60;;;;;;7646841;22;79066;-58
2023/07/02 10:13:56;;;;;;;7.15;4.25;;;25.30;60.80;;;;;;7639625;22;80124;-58
2023/07/02 10:16:56;;;;;;;6.00;4.05;;;25.40;60.90;;;;;;7640453;22;80366;-58
2023/07/02 10:19:57;;;;;;;9.80;4.20;;;25.50;61.60;;;;;;7643242;22;81311;-63
2023/07/02 10:22:58;;;;;;;6.40;3.35;;;25.50;61.70;;;;;;7641127;22;80134;-60
2023/07/02 10:25:58;;;;;;;9.00;3.47;;;25.30;61.40;;;;;;7636692;22;80817;-68
2023/07/02 10:28:59;;;;;;;12.98;4.75;;;25.20;62.30;;;;;;7643577;22;80443;-66
2023/07/02 10:32:00;;;;;;;12.77;4.90;;;25.40;62.70;;;;;;7641006;22;80389;-65
2023/07/02 10:35:02;;;;;;;23.80;7.97;;;25.30;62.60;;;;;;7641099;22;80539;-68
2023/07/02 10:38:02;;;;;;;37.65;12.70;;;25.40;63.10;;;;;;7646315;22;80906;-66
2023/07/02 10:41:03;;;;;;;40.30;15.80;;;25.50;63.30;;;;;;7638110;22;83616;-60
2023/07/02 10:44:04;;;;;;;36.55;13.63;;;25.60;63.70;;;;;;7640991;22;83307;-60
2023/07/02 10:47:04;;;;;;;31.85;14.30;;;25.70;63.70;;;;;;7641588;22;83401;-62
2023/07/02 10:50:05;;;;;;;18.48;8.23;;;25.70;63.90;;;;;;7641697;22;82913;-64
2023/07/02 10:53:05;;;;;;;11.95;7.07;;;25.70;63.40;;;;;;7640588;22;82593;-66
2023/07/02 10:56:06;;;;;;;10.77;4.78;;;25.70;63.60;;;;;;7645156;22;80592;-65
2023/07/02 10:59:06;;;;;;;8.35;4.45;;;25.50;63.60;;;;;;7643190;22;81375;-66
2023/07/02 11:02:07;;;;;;;10.80;3.92;;;25.60;64.20;;;;;;7644346;22;81230;-70
2023/07/02 11:05:11;;;;;;;11.15;4.70;;;25.80;63.40;;;;;;7641419;22;81349;-62
2023/07/02 11:08:12;;;;;;;6.05;3.60;;;25.80;63.50;;;;;;7638192;22;81600;-60
2023/07/02 11:11:12;;;;;;;8.95;4.03;;;25.90;63.20;;;;;;7642535;22;80666;-63
2023/07/02 11:14:13;;;;;;;5.88;3.70;;;25.90;63.20;;;;;;7643300;22;80044;-64
2023/07/02 11:17:13;;;;;;;6.55;3.40;;;25.90;63.30;;;;;;7638055;22;81309;-57
2023/07/02 11:20:15;;;;;;;5.65;3.22;;;25.90;63.30;;;;;;7636100;22;80128;-57
2023/07/02 11:23:15;;;;;;;6.15;4.13;;;25.90;63.10;;;;;;7641923;22;80171;-55
2023/07/02 11:26:16;;;;;;;5.25;3.45;;;26.00;63.60;;;;;;7639064;22;80520;-57
2023/07/02 11:29:16;;;;;;;7.07;3.38;;;26.00;63.20;;;;;;7639720;22;80423;-54
2023/07/02 11:32:17;;;;;;;6.22;3.42;;;26.10;63.30;;;;;;7640745;22;80791;-53
2023/07/02 11:35:17;;;;;;;4.10;2.58;;;26.20;62.70;;;;;;7641245;22;80552;-54
2023/07/02 11:38:18;;;;;;;4.78;3.25;;;26.20;62.20;;;;;;7638929;22;80885;-54
2023/07/02 11:41:18;;;;;;;4.20;3.05;;;26.20;62.20;;;;;;7643237;22;80236;-54
2023/07/02 11:44:19;;;;;;;3.97;2.90;;;26.10;62.10;;;;;;7640451;22;80846;-57
2023/07/02 11:47:19;;;;;;;5.78;3.25;;;26.10;62.00;;;;;;7639841;22;80222;-52
2023/07/02 11:50:20;;;;;;;5.18;2.97;;;26.10;62.10;;;;;;7639882;22;81252;-55
2023/07/02 11:53:20;;;;;;;6.47;2.88;;;26.20;61.70;;;;;;7636684;22;81361;-49
2023/07/02 11:56:21;;;;;;;4.75;3.03;;;26.20;62.20;;;;;;7639907;22;80339;-56
2023/07/02 11:59:21;;;;;;;4.80;3.90;;;26.10;63.10;;;;;;7640695;22;80778;-54
2023/07/02 12:02:22;;;;;;;29.27;23.05;;;26.00;63.00;;;;;;7640704;22;80870;-52
2023/07/02 12:05:22;;;;;;;57.55;41.13;;;26.00;62.50;;;;;;7637949;22;83988;-53
2023/07/02 12:08:23;;;;;;;33.78;24.17;;;26.10;62.00;;;;;;7638402;22;82997;-55
2023/07/02 12:11:23;;;;;;;25.02;14.52;;;26.10;61.10;;;;;;7639370;22;82909;-57
2023/07/02 12:14:24;;;;;;;22.48;15.88;;;26.10;60.90;;;;;;7637139;22;82669;-55
2023/07/02 12:17:24;;;;;;;14.40;7.00;;;26.20;62.00;;;;;;7636678;22;83196;-53
2023/07/02 12:20:25;;;;;;;7.55;4.80;;;26.20;61.70;;;;;;7640516;22;82852;-53
2023/07/02 12:23:25;;;;;;;8.10;4.43;;;26.20;62.50;;;;;;7639787;22;81800;-53
2023/07/02 12:26:26;;;;;;;15.25;3.17;;;26.20;62.80;;;;;;7639649;22;80238;-52
2023/07/02 12:29:26;;;;;;;3.78;2.47;;;26.20;62.60;;;;;;7639160;22;80441;-54
2023/07/02 12:32:27;;;;;;;5.50;2.60;;;26.20;62.30;;;;;;7642834;22;80420;-53
2023/07/02 12:35:28;;;;;;;4.97;2.38;;;26.20;62.10;;;;;;7637174;22;81935;-52
2023/07/02 12:38:29;;;;;;;4.78;2.67;;;26.20;61.30;;;;;;7642147;22;80461;-51
2023/07/02 12:41:29;;;;;;;5.03;2.90;;;26.30;61.40;;;;;;7638104;22;80560;-57
2023/07/02 12:44:30;;;;;;;5.78;2.30;;;26.40;61.60;;;;;;7641442;22;80902;-55
2023/07/02 12:47:30;;;;;;;6.15;2.40;;;26.40;62.00;;;;;;7640710;22;80307;-59
2023/07/02 12:50:31;;;;;;;4.13;2.42;;;26.40;61.70;;;;;;7641256;22;80541;-59
2023/07/02 12:53:32;;;;;;;5.30;2.40;;;26.30;60.90;;;;;;7642733;22;80855;-59
2023/07/02 12:56:32;;;;;;;6.00;2.67;;;26.30;60.10;;;;;;7637988;22;81590;-59
2023/07/02 12:59:33;;;;;;;5.00;2.30;;;26.40;59.80;;;;;;7641206;22;80917;-59
2023/07/02 13:02:33;;;;;;;3.08;2.30;;;26.40;58.90;;;;;;7639083;22;81330;-58
2023/07/02 13:05:34;;;;;;;12.95;3.20;;;26.50;59.00;;;;;;7642897;22;80778;-56
2023/07/02 13:08:34;;;;;;;3.97;2.53;;;26.60;60.10;;;;;;7641742;22;80596;-54
2023/07/02 13:11:35;;;;;;;5.00;2.65;;;26.50;59.70;;;;;;7642675;22;80340;-55
2023/07/02 13:14:35;;;;;;;9.20;2.60;;;26.50;60.00;;;;;;7642366;22;80840;-52
2023/07/02 13:17:36;;;;;;;4.72;2.65;;;26.60;58.60;;;;;;7639919;22;80432;-57
2023/07/02 13:20:36;;;;;;;4.07;2.33;;;26.60;59.10;;;;;;7642684;22;80770;-59
2023/07/02 13:23:37;;;;;;;3.97;2.60;;;26.60;59.00;;;;;;7641019;22;80870;-57
2023/07/02 13:26:37;;;;;;;3.47;2.22;;;26.60;60.20;;;;;;7640528;22;80461;-53
2023/07/02 13:29:38;;;;;;;3.13;2.58;;;26.60;59.40;;;;;;7635198;22;80648;-52
2023/07/02 13:32:38;;;;;;;5.32;2.13;;;26.60;60.10;;;;;;7640180;22;81042;-50
2023/07/02 13:35:39;;;;;;;5.22;2.72;;;26.60;60.20;;;;;;7642186;22;80692;-52
2023/07/02 13:38:39;;;;;;;3.53;2.92;;;26.60;60.20;;;;;;7640633;22;80975;-48
2023/07/02 13:41:40;;;;;;;2.38;2.17;;;26.60;60.80;;;;;;7641120;22;80794;-52
2023/07/02 13:44:40;;;;;;;6.20;2.55;;;26.60;61.20;;;;;;7637773;22;80879;-56
2023/07/02 13:47:41;;;;;;;2.72;2.50;;;26.50;61.00;;;;;;7638997;22;80784;-52
2023/07/02 13:50:41;;;;;;;5.70;2.53;;;26.50;60.60;;;;;;7638157;22;80690;-53
2023/07/02 13:53:42;;;;;;;3.47;2.40;;;26.60;60.80;;;;;;7638781;22;81080;-51
2023/07/02 13:56:42;;;;;;;8.60;2.60;;;26.60;60.80;;;;;;7636102;22;80231;-55
2023/07/02 13:59:43;;;;;;;4.05;2.75;;;26.60;60.50;;;;;;7635817;22;81088;-51
2023/07/02 14:02:43;;;;;;;2.25;2.00;;;26.50;60.30;;;;;;7641607;22;80406;-51
2023/07/02 14:05:44;;;;;;;5.28;1.90;;;26.30;59.60;;;;;;7640783;22;80587;-58
2023/07/02 14:08:45;;;;;;;6.80;1.75;;;26.20;59.20;;;;;;7642308;22;80021;-52
2023/07/02 14:11:45;;;;;;;8.57;1.75;;;26.10;59.00;;;;;;7640265;22;80742;-55
2023/07/02 14:14:46;;;;;;;6.53;1.65;;;26.20;58.90;;;;;;7641051;22;80582;-53
2023/07/02 14:17:47;;;;;;;10.15;1.58;;;26.20;58.80;;;;;;7641939;22;80480;-54
2023/07/02 14:20:47;;;;;;;2.65;1.42;;;26.20;58.60;;;;;;7644606;22;80619;-61
2023/07/02 14:23:48;;;;;;;3.35;1.38;;;26.30;58.30;;;;;;7641918;22;81319;-63
2023/07/02 14:26:48;;;;;;;2.45;1.13;;;26.20;57.60;;;;;;7643729;22;80513;-64
2023/07/02 14:29:49;;;;;;;3.17;1.20;;;26.20;56.80;;;;;;7644684;22;80031;-63
2023/07/02 14:32:50;;;;;;;0.90;0.80;;;26.10;56.00;;;;;;7641899;22;81016;-63
2023/07/02 14:35:50;;;;;;;1.17;1.08;;;26.10;55.90;;;;;;7643961;22;80556;-61
2023/07/02 14:38:51;;;;;;;2.65;1.30;;;26.00;55.50;;;;;;7641995;22;80473;-65
2023/07/02 14:41:51;;;;;;;2.45;1.30;;;26.00;55.40;;;;;;7642963;22;80867;-63
2023/07/02 14:44:52;;;;;;;2.85;1.10;;;26.00;55.40;;;;;;7643404;22;81361;-64
2023/07/02 14:47:52;;;;;;;1.75;1.38;;;25.90;54.80;;;;;;7643636;22;80425;-65
2023/07/02 14:50:53;;;;;;;4.20;1.40;;;25.80;54.10;;;;;;7644627;22;80303;-63
2023/07/02 14:53:55;;;;;;;1.17;1.10;;;25.70;54.40;;;;;;7644413;22;81527;-66
2023/07/02 14:56:55;;;;;;;2.03;1.25;;;25.70;54.60;;;;;;7640181;22;80336;-59
2023/07/02 14:59:56;;;;;;;4.85;1.27;;;25.60;55.20;;;;;;7643232;22;80126;-59
2023/07/02 15:02:56;;;;;;;2.35;1.50;;;25.60;55.60;;;;;;7642763;22;81036;-57
2023/07/02 15:05:57;;;;;;;3.78;1.40;;;25.40;55.50;;;;;;7639926;22;80524;-58
2023/07/02 15:08:57;;;;;;;1.27;0.93;;;25.50;55.70;;;;;;7638693;22;82004;-72
2023/07/02 15:11:58;;;;;;;3.08;1.38;;;25.30;56.90;;;;;;7640888;22;80210;-64
2023/07/02 15:14:58;;;;;;;2.50;1.30;;;25.30;57.50;;;;;;7643114;22;80764;-60
2023/07/02 15:17:59;;;;;;;1.80;1.30;;;25.30;57.80;;;;;;7640939;22;80468;-59
2023/07/02 15:20:59;;;;;;;1.90;1.40;;;25.10;58.50;;;;;;7642032;22;80479;-59
2023/07/02 15:24:00;;;;;;;2.17;1.38;;;24.60;61.40;;;;;;7641688;22;80636;-60
2023/07/02 15:27:01;;;;;;;2.35;1.50;;;24.30;63.10;;;;;;7643219;22;80201;-61
2023/07/02 15:30:01;;;;;;;15.77;9.25;;;24.10;64.60;;;;;;7642518;22;80892;-58
2023/07/02 15:33:02;;;;;;;69.45;37.97;;;24.00;65.30;;;;;;7643390;22;80497;-57
2023/07/02 15:36:02;;;;;;;115.72;61.92;;;24.00;66.80;;;;;;7640993;22;83682;-61
2023/07/02 15:39:03;;;;;;;102.43;54.35;;;24.00;67.10;;;;;;7645374;22;83011;-61
2023/07/02 15:42:04;;;;;;;135.15;72.82;;;23.80;66.70;;;;;;7638689;22;84038;-60
2023/07/02 15:45:06;;;;;;;132.25;72.50;;;23.70;67.50;;;;;;7637952;22;83263;-67